createdAt,value
2018-11-11T00:01:23.241Z,12.90
2018-11-11T00:03:52.242Z,12.90
2018-11-11T00:06:22.118Z,12.90
2018-11-11T00:09:10.486Z,12.90
2018-11-11T00:11:39.763Z,12.90
2018-11-11T00:14:08.812Z,12.90
2018-11-11T00:16:38.122Z,12.80
2018-11-11T00:19:07.589Z,12.80
2018-11-11T00:21:36.703Z,12.70
2018-11-11T00:24:05.977Z,12.70
2018-11-11T00:26:35.145Z,12.60
2018-11-11T00:29:04.445Z,12.60
2018-11-11T00:31:33.914Z,12.60
2018-11-11T00:34:03.466Z,12.60
2018-11-11T00:36:32.769Z,12.50
2018-11-11T00:39:01.767Z,12.50
2018-11-11T00:41:31.082Z,12.60
2018-11-11T00:44:00.559Z,12.60
2018-11-11T00:46:30.026Z,12.60
2018-11-11T00:48:58.946Z,12.60
2018-11-11T00:51:27.909Z,12.60
2018-11-11T00:53:56.997Z,12.60
2018-11-11T00:56:26.324Z,12.60
2018-11-11T00:58:55.661Z,12.60
2018-11-11T01:01:24.934Z,12.70
2018-11-11T01:03:54.649Z,12.60
2018-11-11T01:06:23.789Z,12.60
2018-11-11T01:08:52.723Z,12.60
2018-11-11T01:11:22.055Z,12.50
2018-11-11T01:13:51.008Z,12.50
2018-11-11T01:16:20.062Z,12.50
2018-11-11T01:18:49.393Z,12.40
2018-11-11T01:21:18.317Z,12.40
2018-11-11T01:23:47.284Z,12.40
2018-11-11T01:26:16.312Z,12.40
2018-11-11T01:28:45.334Z,12.40
2018-11-11T01:31:14.690Z,12.40
2018-11-11T01:33:43.858Z,12.30
2018-11-11T01:36:12.890Z,12.40
2018-11-11T01:38:41.845Z,12.30
2018-11-11T01:41:10.885Z,12.30
2018-11-11T01:43:40.173Z,12.30
2018-11-11T01:46:09.157Z,12.30
2018-11-11T01:48:38.625Z,12.20
2018-11-11T01:51:07.942Z,12.30
2018-11-11T01:53:37.594Z,12.20
2018-11-11T01:56:06.997Z,12.20
2018-11-11T01:58:36.014Z,12.20
2018-11-11T02:01:05.594Z,12.20
2018-11-11T02:03:35.093Z,12.20
2018-11-11T02:06:04.374Z,12.20
2018-11-11T02:08:33.491Z,12.20
2018-11-11T02:11:03.298Z,12.20
2018-11-11T02:13:32.538Z,12.20
2018-11-11T02:16:02.074Z,12.20
2018-11-11T02:18:31.081Z,12.20
2018-11-11T02:21:00.707Z,12.20
2018-11-11T02:23:29.936Z,12.20
2018-11-11T02:25:59.454Z,12.20
2018-11-11T02:28:28.541Z,12.30
2018-11-11T02:30:58.008Z,12.30
2018-11-11T02:33:27.557Z,12.30
2018-11-11T02:35:56.914Z,12.30
2018-11-11T02:38:26.003Z,12.20
2018-11-11T02:40:55.299Z,12.20
2018-11-11T02:43:25.118Z,12.30
2018-11-11T02:45:54.540Z,12.20
2018-11-11T02:48:23.501Z,12.20
2018-11-11T02:50:53.417Z,12.30
2018-11-11T02:53:22.409Z,12.30
2018-11-11T02:55:51.662Z,12.30
2018-11-11T02:58:20.776Z,12.20
2018-11-11T03:00:49.715Z,12.20
2018-11-11T03:03:18.829Z,12.20
2018-11-11T03:05:47.976Z,12.20
2018-11-11T03:08:16.975Z,12.20
2018-11-11T03:10:46.033Z,12.20
2018-11-11T03:13:15.192Z,12.20
2018-11-11T03:15:44.270Z,12.20
2018-11-11T03:18:13.595Z,12.20
2018-11-11T03:20:42.573Z,12.20
2018-11-11T03:23:12.393Z,12.20
2018-11-11T03:25:41.505Z,12.20
2018-11-11T03:28:10.441Z,12.10
2018-11-11T03:30:39.462Z,12.10
2018-11-11T03:33:08.447Z,12.00
2018-11-11T03:35:37.663Z,12.00
2018-11-11T03:38:07.073Z,11.90
2018-11-11T03:40:36.570Z,11.90
2018-11-11T03:43:06.176Z,11.90
2018-11-11T03:45:36.506Z,11.90
2018-11-11T03:48:06.925Z,11.90
2018-11-11T03:50:36.535Z,11.80
2018-11-11T03:53:05.834Z,11.80
2018-11-11T03:55:35.139Z,11.80
2018-11-11T03:58:04.513Z,11.80
2018-11-11T04:00:34.267Z,11.80
2018-11-11T04:03:03.789Z,11.80
2018-11-11T04:05:33.677Z,11.80
2018-11-11T04:08:03.062Z,11.80
2018-11-11T04:10:32.878Z,11.70
2018-11-11T04:13:01.870Z,11.70
2018-11-11T04:15:31.078Z,11.70
2018-11-11T04:18:00.484Z,11.60
2018-11-11T04:20:29.433Z,11.60
2018-11-11T04:22:58.491Z,11.60
2018-11-11T04:25:27.446Z,11.60
2018-11-11T04:27:56.960Z,11.60
2018-11-11T04:30:26.565Z,11.60
2018-11-11T04:32:56.481Z,11.60
2018-11-11T04:35:26.042Z,11.60
2018-11-11T04:37:55.274Z,11.60
2018-11-11T04:40:24.222Z,11.60
2018-11-11T04:42:53.682Z,11.60
2018-11-11T04:45:22.741Z,11.60
2018-11-11T04:47:51.973Z,11.50
2018-11-11T04:50:21.601Z,11.50
2018-11-11T04:52:50.749Z,11.60
2018-11-11T04:55:19.946Z,11.60
2018-11-11T04:57:48.982Z,11.60
2018-11-11T05:00:19.206Z,11.60
2018-11-11T05:02:48.153Z,11.60
2018-11-11T05:05:17.174Z,11.60
2018-11-11T05:07:46.230Z,11.60
2018-11-11T05:10:15.434Z,11.60
2018-11-11T05:12:44.866Z,11.70
2018-11-11T05:15:14.429Z,11.70
2018-11-11T05:17:43.585Z,11.70
2018-11-11T05:20:13.209Z,11.70
2018-11-11T05:22:43.028Z,11.70
2018-11-11T05:25:14.662Z,11.70
2018-11-11T05:27:44.263Z,11.70
2018-11-11T05:30:14.331Z,11.70
2018-11-11T05:32:43.453Z,11.70
2018-11-11T05:35:12.802Z,11.70
2018-11-11T05:37:42.206Z,11.70
2018-11-11T05:40:12.340Z,11.70
2018-11-11T05:42:42.528Z,11.70
2018-11-11T05:45:12.682Z,11.70
2018-11-11T05:47:42.026Z,11.70
2018-11-11T05:50:13.347Z,11.70
2018-11-11T05:52:43.281Z,11.70
2018-11-11T05:55:12.404Z,11.70
2018-11-11T05:57:41.533Z,11.70
2018-11-11T06:00:12.366Z,11.70
2018-11-11T06:02:41.993Z,11.70
2018-11-11T06:05:12.428Z,11.70
2018-11-11T06:07:41.423Z,11.80
2018-11-11T06:10:12.049Z,11.90
2018-11-11T06:12:41.191Z,12.00
2018-11-11T06:15:11.293Z,12.10
2018-11-11T06:17:40.367Z,12.20
2018-11-11T06:20:13.077Z,12.40
2018-11-11T06:22:42.209Z,12.60
2018-11-11T06:25:11.786Z,12.70
2018-11-11T06:27:41.342Z,12.90
2018-11-11T06:30:11.237Z,13.10
2018-11-11T06:32:40.803Z,13.30
2018-11-11T06:35:10.119Z,13.50
2018-11-11T06:37:39.377Z,13.70
2018-11-11T06:40:10.538Z,13.80
2018-11-11T06:42:39.765Z,14.00
2018-11-11T06:45:10.732Z,14.20
2018-11-11T06:47:40.921Z,14.40
2018-11-11T06:50:11.221Z,14.60
2018-11-11T06:52:41.036Z,14.80
2018-11-11T06:55:10.665Z,15.00
2018-11-11T06:57:39.817Z,15.20
2018-11-11T07:00:11.026Z,15.40
2018-11-11T07:02:45.017Z,15.60
2018-11-11T07:05:14.002Z,15.70
2018-11-11T07:07:42.996Z,16.00
2018-11-11T07:10:12.805Z,16.10
2018-11-11T07:12:41.874Z,16.30
2018-11-11T07:15:11.000Z,16.40
2018-11-11T07:17:41.019Z,16.60
2018-11-11T07:20:10.624Z,16.70
2018-11-11T07:22:39.674Z,16.90
2018-11-11T07:25:08.740Z,17.10
2018-11-11T07:27:37.841Z,17.20
2018-11-11T07:30:08.241Z,17.40
2018-11-11T07:32:37.285Z,17.50
2018-11-11T07:35:07.855Z,17.60
2018-11-11T07:37:37.262Z,17.70
2018-11-11T07:40:08.322Z,17.80
2018-11-11T07:42:37.508Z,17.90
2018-11-11T07:45:07.314Z,18.10
2018-11-11T07:47:36.918Z,18.10
2018-11-11T07:50:07.047Z,18.10
2018-11-11T07:52:36.341Z,18.20
2018-11-11T07:55:06.255Z,18.20
2018-11-11T07:57:35.118Z,18.20
2018-11-11T08:00:05.602Z,18.20
2018-11-11T08:02:34.733Z,18.20
2018-11-11T08:05:04.064Z,18.20
2018-11-11T08:07:33.465Z,18.20
2018-11-11T08:10:03.085Z,18.30
2018-11-11T08:12:32.467Z,18.30
2018-11-11T08:15:01.449Z,18.40
2018-11-11T08:17:30.513Z,18.50
2018-11-11T08:19:59.462Z,18.50
2018-11-11T08:22:28.424Z,18.60
2018-11-11T08:24:57.470Z,18.50
2018-11-11T08:27:27.258Z,18.60
2018-11-11T08:29:56.362Z,18.70
2018-11-11T08:32:26.892Z,18.70
2018-11-11T08:34:56.122Z,18.80
2018-11-11T08:37:25.460Z,18.90
2018-11-11T08:39:54.985Z,19.00
2018-11-11T08:42:24.112Z,19.10
2018-11-11T08:44:53.137Z,19.20
2018-11-11T08:47:22.360Z,19.30
2018-11-11T08:49:51.383Z,19.30
2018-11-11T08:52:20.789Z,19.40
2018-11-11T08:54:49.989Z,19.40
2018-11-11T08:57:19.168Z,19.40
2018-11-11T08:59:48.769Z,19.50
2018-11-11T09:02:17.870Z,19.60
2018-11-11T09:04:47.109Z,19.60
2018-11-11T09:07:16.137Z,19.70
2018-11-11T09:09:46.145Z,19.70
2018-11-11T09:12:15.363Z,19.70
2018-11-11T09:14:44.805Z,19.80
2018-11-11T09:17:14.324Z,19.80
2018-11-11T09:19:43.562Z,19.90
2018-11-11T09:22:12.564Z,19.90
2018-11-11T09:24:41.605Z,20.00
2018-11-11T09:27:11.080Z,20.00
2018-11-11T09:29:40.259Z,20.00
2018-11-11T09:32:09.487Z,20.10
2018-11-11T09:34:38.664Z,20.20
2018-11-11T09:37:07.766Z,20.20
2018-11-11T09:39:36.890Z,20.20
2018-11-11T09:42:06.133Z,20.30
2018-11-11T09:44:35.572Z,20.30
2018-11-11T09:47:04.821Z,20.40
2018-11-11T09:49:35.305Z,20.30
2018-11-11T09:52:05.001Z,20.40
2018-11-11T09:54:34.090Z,20.40
2018-11-11T09:57:03.290Z,20.40
2018-11-11T09:59:34.072Z,20.40
2018-11-11T10:02:03.849Z,20.30
2018-11-11T10:04:40.318Z,20.20
2018-11-11T10:09:19.659Z,20.10
2018-11-11T10:11:54.850Z,20.10
2018-11-11T10:15:00.340Z,20.00
2018-11-11T10:17:33.135Z,19.90
2018-11-11T10:20:16.959Z,19.80
2018-11-11T10:22:50.070Z,19.80
2018-11-11T10:25:25.303Z,19.80
2018-11-11T10:28:05.661Z,19.90
2018-11-11T10:30:39.858Z,19.90
2018-11-11T10:33:28.012Z,19.90
2018-11-11T10:37:11.197Z,19.80
2018-11-11T10:39:49.679Z,19.80
2018-11-11T10:42:25.470Z,19.80
2018-11-11T10:45:12.217Z,19.70
2018-11-11T10:47:45.591Z,19.70
2018-11-11T10:50:20.152Z,19.70
2018-11-11T10:52:49.920Z,19.80
2018-11-11T10:55:19.193Z,19.70
2018-11-11T10:57:48.354Z,19.70
2018-11-11T11:00:22.836Z,19.60
2018-11-11T11:02:58.985Z,19.50
2018-11-11T11:05:28.607Z,19.40
2018-11-11T11:07:58.238Z,19.40
2018-11-11T11:10:27.985Z,19.40
2018-11-11T11:12:57.774Z,19.40
2018-11-11T11:15:27.369Z,19.40
2018-11-11T11:17:57.304Z,19.30
2018-11-11T11:20:26.702Z,19.40
2018-11-11T11:22:56.367Z,19.40
2018-11-11T11:25:25.642Z,19.40
2018-11-11T11:27:55.206Z,19.40
2018-11-11T11:30:24.641Z,19.40
2018-11-11T11:32:53.732Z,19.40
2018-11-11T11:35:23.169Z,19.40
2018-11-11T11:37:52.892Z,19.50
2018-11-11T11:40:22.634Z,19.50
2018-11-11T11:42:52.083Z,19.50
2018-11-11T11:45:21.321Z,19.60
2018-11-11T11:47:50.407Z,19.60
2018-11-11T11:50:19.671Z,19.60
2018-11-11T11:52:48.977Z,19.70
2018-11-11T11:55:18.062Z,19.80
2018-11-11T11:57:58.081Z,19.90
2018-11-11T12:00:27.592Z,20.00
2018-11-11T12:02:57.969Z,20.10
2018-11-11T12:05:27.170Z,20.20
2018-11-11T12:07:56.982Z,20.40
2018-11-11T12:10:26.518Z,20.50
2018-11-11T12:12:55.659Z,20.60
2018-11-11T12:15:24.730Z,20.70
2018-11-11T12:17:55.045Z,20.80
2018-11-11T12:20:24.122Z,20.90
2018-11-11T12:22:53.633Z,20.90
2018-11-11T12:25:23.549Z,21.00
2018-11-11T12:27:52.664Z,21.10
2018-11-11T12:30:22.156Z,21.80
2018-11-11T12:32:52.589Z,23.00
2018-11-11T12:35:22.373Z,24.40
2018-11-11T12:37:51.396Z,25.50
2018-11-11T12:40:20.866Z,26.80
2018-11-11T12:42:50.405Z,28.10
2018-11-11T12:45:19.691Z,28.80
2018-11-11T12:47:49.261Z,29.10
2018-11-11T12:50:18.622Z,29.60
2018-11-11T12:52:48.229Z,29.90
2018-11-11T12:55:20.797Z,30.40
2018-11-11T12:57:50.383Z,30.80
2018-11-11T13:00:22.809Z,31.20
2018-11-11T13:02:53.202Z,31.60
2018-11-11T13:05:23.307Z,32.00
2018-11-11T13:07:53.991Z,32.40
2018-11-11T13:10:23.545Z,32.60
2018-11-11T13:12:52.667Z,32.70
2018-11-11T13:15:22.469Z,32.60
2018-11-11T13:17:52.848Z,32.30
2018-11-11T13:20:24.137Z,32.00
2018-11-11T13:22:54.824Z,32.00
2018-11-11T13:25:27.910Z,32.00
2018-11-11T13:27:59.067Z,31.80
2018-11-11T13:30:30.404Z,31.70
2018-11-11T13:33:04.111Z,31.60
2018-11-11T13:35:33.523Z,31.80
2018-11-11T13:38:05.982Z,31.80
2018-11-11T13:40:36.425Z,31.80
2018-11-11T13:43:09.816Z,31.90
2018-11-11T13:45:39.057Z,32.30
2018-11-11T13:48:08.199Z,32.20
2018-11-11T13:50:37.683Z,31.20
2018-11-11T13:53:14.224Z,29.60
2018-11-11T13:55:51.873Z,27.80
2018-11-11T13:58:29.290Z,26.20
2018-11-11T14:01:01.857Z,24.70
2018-11-11T14:03:35.430Z,23.50
2018-11-11T14:06:07.370Z,22.60
2018-11-11T14:08:40.250Z,22.00
2018-11-11T14:11:14.653Z,21.50
2018-11-11T14:13:48.571Z,21.10
2018-11-11T14:16:22.841Z,20.70
2018-11-11T14:18:53.252Z,20.40
2018-11-11T14:21:22.637Z,20.20
2018-11-11T14:23:55.713Z,20.40
2018-11-11T14:26:24.975Z,21.60
2018-11-11T14:28:59.471Z,23.30
2018-11-11T14:31:29.434Z,24.90
2018-11-11T14:34:05.923Z,26.10
2018-11-11T14:36:35.421Z,26.20
2018-11-11T14:39:07.837Z,25.50
2018-11-11T14:41:43.511Z,24.50
2018-11-11T14:44:19.763Z,23.50
2018-11-11T14:46:49.478Z,22.50
2018-11-11T14:49:18.515Z,21.70
2018-11-11T14:51:47.845Z,21.00
2018-11-11T14:54:16.790Z,20.50
2018-11-11T14:56:46.685Z,20.10
2018-11-11T14:59:15.989Z,19.70
2018-11-11T15:01:45.308Z,19.50
2018-11-11T15:04:14.478Z,19.20
2018-11-11T15:06:45.109Z,19.00
2018-11-11T15:09:14.489Z,18.80
2018-11-11T15:11:43.506Z,18.70
2018-11-11T15:14:12.475Z,18.60
2018-11-11T15:16:41.483Z,18.40
2018-11-11T15:19:11.804Z,18.30
2018-11-11T15:21:41.323Z,18.20
2018-11-11T15:24:10.929Z,18.10
2018-11-11T15:26:40.450Z,18.10
2018-11-11T15:29:09.890Z,18.00
2018-11-11T15:31:39.561Z,17.90
2018-11-11T15:34:09.589Z,17.80
2018-11-11T15:36:38.665Z,17.70
2018-11-11T15:39:10.178Z,17.60
2018-11-11T15:41:39.908Z,17.50
2018-11-11T15:44:09.157Z,17.60
2018-11-11T15:46:38.562Z,17.40
2018-11-11T15:49:07.632Z,17.30
2018-11-11T15:51:37.314Z,17.20
2018-11-11T15:54:06.907Z,17.20
2018-11-11T15:56:36.414Z,17.00
2018-11-11T15:59:06.939Z,16.90
2018-11-11T16:01:35.903Z,16.80
2018-11-11T16:04:05.038Z,16.70
2018-11-11T16:06:34.257Z,16.70
2018-11-11T16:09:03.657Z,16.60
2018-11-11T16:11:32.837Z,16.50
2018-11-11T16:14:01.884Z,16.40
2018-11-11T16:16:31.282Z,16.30
2018-11-11T16:19:00.565Z,16.30
2018-11-11T16:21:30.447Z,16.20
2018-11-11T16:23:59.893Z,16.20
2018-11-11T16:26:29.087Z,16.20
2018-11-11T16:28:58.204Z,16.10
2018-11-11T16:31:27.691Z,16.00
2018-11-11T16:33:56.991Z,15.90
2018-11-11T16:36:26.653Z,15.90
2018-11-11T16:38:55.657Z,15.80
2018-11-11T16:41:25.360Z,15.70
2018-11-11T16:43:54.425Z,15.70
2018-11-11T16:46:23.734Z,15.70
2018-11-11T16:48:52.924Z,15.60
2018-11-11T16:51:22.254Z,15.60
2018-11-11T16:53:52.487Z,15.60
2018-11-11T16:56:21.710Z,15.60
2018-11-11T16:58:50.805Z,15.50
2018-11-11T17:01:20.318Z,15.50
2018-11-11T17:03:49.818Z,15.40
2018-11-11T17:06:20.033Z,15.40
2018-11-11T17:08:49.110Z,15.30
2018-11-11T17:11:18.105Z,15.30
2018-11-11T17:13:47.741Z,15.30
2018-11-11T17:16:17.043Z,15.20
2018-11-11T17:18:47.154Z,15.20
2018-11-11T17:21:17.785Z,15.20
2018-11-11T17:23:46.743Z,15.20
2018-11-11T17:26:15.972Z,15.10
2018-11-11T17:28:45.102Z,15.10
2018-11-11T17:31:14.573Z,15.10
2018-11-11T17:33:43.957Z,15.10
2018-11-11T17:36:13.174Z,15.10
2018-11-11T17:38:42.366Z,15.10
2018-11-11T17:41:12.395Z,15.10
2018-11-11T17:43:41.498Z,15.10
2018-11-11T17:46:10.546Z,15.10
2018-11-11T17:48:39.891Z,15.00
2018-11-11T17:51:09.201Z,15.00
2018-11-11T17:53:38.422Z,15.10
2018-11-11T17:56:07.768Z,15.00
2018-11-11T17:58:37.058Z,15.00
2018-11-11T18:01:07.909Z,15.00
2018-11-11T18:03:37.426Z,14.90
2018-11-11T18:06:07.013Z,14.90
2018-11-11T18:08:36.422Z,14.90
2018-11-11T18:11:05.717Z,14.90
2018-11-11T18:13:35.217Z,14.80
2018-11-11T18:16:04.281Z,14.80
2018-11-11T18:18:33.214Z,14.80
2018-11-11T18:21:02.543Z,14.80
2018-11-11T18:23:31.833Z,14.80
2018-11-11T18:26:00.806Z,14.80
2018-11-11T18:28:30.194Z,14.70
2018-11-11T18:31:00.239Z,14.70
2018-11-11T18:33:29.370Z,14.70
2018-11-11T18:35:58.420Z,14.70
2018-11-11T18:38:27.942Z,14.60
2018-11-11T18:40:57.317Z,14.60
2018-11-11T18:43:27.899Z,14.70
2018-11-11T18:45:59.893Z,14.60
2018-11-11T18:48:29.145Z,14.60
2018-11-11T18:50:58.389Z,14.60
2018-11-11T18:53:27.494Z,14.60
2018-11-11T18:55:56.821Z,14.60
2018-11-11T18:58:28.574Z,14.40
2018-11-11T19:00:59.097Z,14.60
2018-11-11T19:03:28.589Z,14.60
2018-11-11T19:05:57.746Z,14.60
2018-11-11T19:08:27.449Z,14.60
2018-11-11T19:10:56.967Z,14.60
2018-11-11T19:13:26.024Z,14.50
2018-11-11T19:15:55.742Z,14.50
2018-11-11T19:18:24.742Z,14.60
2018-11-11T19:20:53.773Z,14.50
2018-11-11T19:23:25.177Z,14.50
2018-11-11T19:25:55.022Z,14.60
2018-11-11T19:28:27.464Z,14.50
2018-11-11T19:31:01.461Z,14.50
2018-11-11T19:33:32.702Z,14.50
2018-11-11T19:36:02.634Z,14.50
2018-11-11T19:38:33.407Z,14.60
2018-11-11T19:41:02.548Z,14.50
2018-11-11T19:43:32.950Z,14.50
2018-11-11T19:46:02.130Z,14.50
2018-11-11T19:48:32.328Z,14.50
2018-11-11T19:51:01.651Z,14.50
2018-11-11T19:53:30.908Z,14.50
2018-11-11T19:56:05.726Z,14.50
2018-11-11T19:58:35.946Z,14.50
2018-11-11T20:01:10.762Z,14.50
2018-11-11T20:03:40.932Z,14.60
2018-11-11T20:06:10.162Z,14.40
2018-11-11T20:08:41.246Z,14.40
2018-11-11T20:11:12.979Z,14.70
2018-11-11T20:13:42.747Z,14.40
2018-11-11T20:16:12.018Z,14.40
2018-11-11T20:18:45.814Z,14.40
2018-11-11T20:21:15.956Z,14.50
2018-11-11T20:23:45.013Z,14.40
2018-11-11T20:26:14.241Z,14.40
2018-11-11T20:28:47.843Z,14.40
2018-11-11T20:31:21.752Z,14.30
2018-11-11T20:33:52.531Z,14.30
2018-11-11T20:36:23.545Z,14.30
2018-11-11T20:38:52.741Z,14.30
2018-11-11T20:41:23.662Z,14.30
2018-11-11T20:43:52.948Z,14.30
2018-11-11T20:46:24.391Z,14.30
2018-11-11T20:48:53.593Z,14.30
2018-11-11T20:51:23.415Z,13.90
2018-11-11T20:53:52.806Z,14.20
2018-11-11T20:56:22.142Z,14.20
2018-11-11T20:58:52.670Z,14.30
2018-11-11T21:01:21.768Z,14.30
2018-11-11T21:03:51.154Z,14.30
2018-11-11T21:06:32.297Z,14.30
2018-11-11T21:09:04.537Z,14.30
2018-11-11T21:11:33.695Z,14.20
2018-11-11T21:14:02.919Z,14.30
2018-11-11T21:16:34.949Z,14.30
2018-11-11T21:19:04.876Z,14.30
2018-11-11T21:21:34.176Z,14.30
2018-11-11T21:24:04.898Z,14.20
2018-11-11T21:26:36.586Z,14.20
2018-11-11T21:29:08.926Z,14.10
2018-11-11T21:31:38.387Z,14.10
2018-11-11T21:34:10.533Z,14.00
2018-11-11T21:36:39.861Z,14.00
2018-11-11T21:39:12.181Z,14.00
2018-11-11T21:41:42.061Z,14.00
2018-11-11T21:44:11.596Z,14.00
2018-11-11T21:46:40.674Z,14.00
2018-11-11T21:49:11.192Z,14.00
2018-11-11T21:51:41.446Z,14.00
2018-11-11T21:54:10.635Z,13.90
2018-11-11T21:56:40.030Z,13.90
2018-11-11T21:59:09.334Z,13.90
2018-11-11T22:01:38.447Z,13.90
2018-11-11T22:06:36.994Z,13.90
2018-11-11T22:09:08.642Z,14.00
2018-11-11T22:11:38.280Z,13.90
2018-11-11T22:14:08.038Z,13.80
2018-11-11T22:16:37.193Z,13.80
2018-11-11T22:19:06.715Z,13.80
2018-11-11T22:21:35.774Z,13.70
2018-11-11T22:24:05.134Z,13.70
2018-11-11T22:26:34.417Z,13.60
2018-11-11T22:29:04.219Z,13.60
2018-11-11T22:31:33.301Z,13.60
2018-11-11T22:34:03.430Z,13.60
2018-11-11T22:36:33.047Z,13.60
2018-11-11T22:39:02.163Z,13.60
2018-11-11T22:41:31.326Z,13.60
2018-11-11T22:44:00.797Z,13.70
2018-11-11T22:46:30.079Z,13.60
2018-11-11T22:48:59.312Z,13.60
2018-11-11T22:51:28.318Z,13.60
2018-11-11T22:53:57.322Z,13.60
2018-11-11T22:56:26.827Z,13.60
2018-11-11T22:58:56.273Z,13.50
2018-11-11T23:01:25.643Z,13.60
2018-11-11T23:03:55.117Z,13.60
2018-11-11T23:06:25.262Z,13.60
2018-11-11T23:08:54.650Z,13.60
2018-11-11T23:11:23.624Z,13.40
2018-11-11T23:13:52.650Z,13.60
2018-11-11T23:16:21.941Z,13.60
2018-11-11T23:18:51.000Z,13.60
2018-11-11T23:21:20.179Z,13.50
2018-11-11T23:23:50.159Z,13.20
2018-11-11T23:26:19.961Z,13.60
2018-11-11T23:28:49.261Z,13.60
2018-11-11T23:31:18.566Z,13.60
2018-11-11T23:33:47.629Z,13.60
2018-11-11T23:36:16.761Z,13.60
2018-11-11T23:38:45.943Z,13.70
2018-11-11T23:41:15.082Z,13.60
2018-11-11T23:43:44.258Z,13.60
2018-11-11T23:46:13.202Z,13.60
2018-11-11T23:48:42.227Z,13.60
2018-11-11T23:51:11.217Z,13.50
2018-11-11T23:53:40.736Z,13.50
2018-11-11T23:56:09.793Z,13.50
2018-11-11T23:58:39.326Z,13.50
